Zenith Leader — 2ACU6 — position and weather

sailwx.info

Track history (hours):
 
Tides and Currents Weather Stations Pressure Air Temp Water Temp Dewpoint Dewpoint Depression Visibility Wind Speed Wind Dir Waves Ship Positions

Zenith Leader

Last reported at 2016-Jun-27 00:07 UTC. Time now 2016-Jun-29 18:21 UTC.
Position N 28°24' W 093°10'.

Length 200 m; draft 8.7 m.

Type: Cargo ship. MMSI: 235058697.

Date/timePositionNaut miles runAvg speedWind from/ knotsBaromVisibWave heightAir tempDewpointWater temp
2016-Jun-27 00:07N 28°24' W 093°10'9914.9
2016-Jun-26 17:26N 29°21' W 094°44'910.1
2016-Jun-26 16:32N 29°27' W 094°51'1211.7
2016-Jun-26 15:31N 29°38' W 094°58'8 8.3
2016-Jun-26 14:33N 29°44' W 095°03'6 6.0
2016-Jun-26 13:33N 29°45' W 095°10'5 5.4
2016-Jun-26 12:32N 29°44' W 095°16'1 0.1
2016-Jun-26 08:08N 29°44' W 095°17'0 0.0
2016-Jun-26 06:14N 29°44' W 095°17'0 0.0
2016-Jun-26 05:32N 29°44' W 095°17'0 0.0
2016-Jun-25 18:32N 29°44' W 095°17'0 0.0
2016-Jun-25 17:14N 29°44' W 095°17'0 0.0
2016-Jun-25 16:14N 29°44' W 095°17'1 0.0
2016-Jun-24 23:21N 29°43' W 095°16'4 5.0
2016-Jun-24 22:31N 29°45' W 095°11'6 5.9
2016-Jun-24 21:33N 29°46' W 095°05'8 8.1
2016-Jun-24 20:33N 29°40' W 094°58'1312.5
2016-Jun-24 19:33N 29°29' W 094°52'13011.8
2016-Jun-24 08:32N 28°12' W 092°53'4016.1
2016-Jun-24 06:04N 27°41' W 092°24'  
2016-Jun-21 22:20N 25°52' W 079°28'1013.3
2016-Jun-21 21:33N 26°02' W 079°26'1313.3
2016-Jun-21 20:33N 26°16' W 079°25'  
2016-Jun-17 16:11N 31°14' W 079°18'812.2
2016-Jun-17 15:34N 31°20' W 079°12'2512.5
2016-Jun-17 13:31N 31°38' W 078°51'1212.9
2016-Jun-17 12:34N 31°47' W 078°40'1413.2
2016-Jun-17 11:30N 31°57' W 078°29'5813.7
2016-Jun-17 07:17N 32°38' W 077°41'1013.7
2016-Jun-17 06:33N 32°45' W 077°32'2913.7
2016-Jun-17 04:26N 33°05' W 077°08'1314.9
2016-Jun-17 03:33N 33°15' W 076°57'  
Track history (hours):
 
Tides and Currents Weather Stations Pressure Air Temp Water Temp Dewpoint Dewpoint Depression Visibility Wind Speed Wind Dir Waves Ship Positions

Zenith Leader

Last reported at 2016-Jun-27 00:07 UTC. Time now 2016-Jun-29 18:21 UTC.
Position N 28°24' W 093°10'.

Length 200 m; draft 8.7 m.

Type: Cargo ship. MMSI: 235058697.

Date/timePositionNaut miles runAvg speedWind from/ knotsBaromVisibWave heightAir tempDewpointWater temp
2016-Jun-27 00:07N 28°24' W 093°10'9914.9
2016-Jun-26 17:26N 29°21' W 094°44'910.1
2016-Jun-26 16:32N 29°27' W 094°51'1211.7
2016-Jun-26 15:31N 29°38' W 094°58'8 8.3
2016-Jun-26 14:33N 29°44' W 095°03'6 6.0
2016-Jun-26 13:33N 29°45' W 095°10'5 5.4
2016-Jun-26 12:32N 29°44' W 095°16'1 0.1
2016-Jun-26 08:08N 29°44' W 095°17'0 0.0
2016-Jun-26 06:14N 29°44' W 095°17'0 0.0
2016-Jun-26 05:32N 29°44' W 095°17'0 0.0
2016-Jun-25 18:32N 29°44' W 095°17'0 0.0
2016-Jun-25 17:14N 29°44' W 095°17'0 0.0
2016-Jun-25 16:14N 29°44' W 095°17'1 0.0
2016-Jun-24 23:21N 29°43' W 095°16'4 5.0
2016-Jun-24 22:31N 29°45' W 095°11'6 5.9
2016-Jun-24 21:33N 29°46' W 095°05'8 8.1
2016-Jun-24 20:33N 29°40' W 094°58'1312.5
2016-Jun-24 19:33N 29°29' W 094°52'13011.8
2016-Jun-24 08:32N 28°12' W 092°53'4016.1
2016-Jun-24 06:04N 27°41' W 092°24'  
2016-Jun-21 22:20N 25°52' W 079°28'1013.3
2016-Jun-21 21:33N 26°02' W 079°26'1313.3
2016-Jun-21 20:33N 26°16' W 079°25'  
2016-Jun-17 16:11N 31°14' W 079°18'812.2
2016-Jun-17 15:34N 31°20' W 079°12'2512.5
2016-Jun-17 13:31N 31°38' W 078°51'1212.9
2016-Jun-17 12:34N 31°47' W 078°40'1413.2
2016-Jun-17 11:30N 31°57' W 078°29'5813.7
2016-Jun-17 07:17N 32°38' W 077°41'1013.7
2016-Jun-17 06:33N 32°45' W 077°32'2913.7
2016-Jun-17 04:26N 33°05' W 077°08'1314.9
2016-Jun-17 03:33N 33°15' W 076°57'  

Dump ship's entire track history